sensor_id;sensor_type;location;lat;lon;timestamp;pressure;altitude;pressure_sealevel;temperature;humidity
7768;BME280;3928;42.626;23.382;2024-01-07T00:02:21;92678.22;;;11.59;78.10
7768;BME280;3928;42.626;23.382;2024-01-07T00:04:48;92686.63;;;11.63;77.70
7768;BME280;3928;42.626;23.382;2024-01-07T00:07:15;92674.78;;;11.60;77.56
7768;BME280;3928;42.626;23.382;2024-01-07T00:09:42;92668.75;;;11.79;76.84
7768;BME280;3928;42.626;23.382;2024-01-07T00:12:09;92656.75;;;11.79;76.35
7768;BME280;3928;42.626;23.382;2024-01-07T00:14:36;92660.78;;;11.85;75.96
7768;BME280;3928;42.626;23.382;2024-01-07T00:17:04;92648.63;;;11.69;76.60
7768;BME280;3928;42.626;23.382;2024-01-07T00:19:31;92648.16;;;11.80;76.32
7768;BME280;3928;42.626;23.382;2024-01-07T00:22:00;92638.41;;;11.87;75.98
7768;BME280;3928;42.626;23.382;2024-01-07T00:24:27;92652.34;;;12.00;75.53
7768;BME280;3928;42.626;23.382;2024-01-07T00:26:54;92641.06;;;12.03;74.95
7768;BME280;3928;42.626;23.382;2024-01-07T00:29:21;92631.41;;;12.08;74.77
7768;BME280;3928;42.626;23.382;2024-01-07T00:31:48;92618.16;;;12.15;74.31
7768;BME280;3928;42.626;23.382;2024-01-07T00:34:17;92591.16;;;12.07;73.97
7768;BME280;3928;42.626;23.382;2024-01-07T00:36:44;92605.63;;;12.09;74.02
7768;BME280;3928;42.626;23.382;2024-01-07T00:39:11;92587.09;;;12.03;74.18
7768;BME280;3928;42.626;23.382;2024-01-07T00:41:38;92608.53;;;12.19;73.75
7768;BME280;3928;42.626;23.382;2024-01-07T00:44:05;92607.25;;;12.27;73.48
7768;BME280;3928;42.626;23.382;2024-01-07T00:46:32;92600.44;;;12.26;73.61
7768;BME280;3928;42.626;23.382;2024-01-07T00:48:58;92586.38;;;12.16;74.01
7768;BME280;3928;42.626;23.382;2024-01-07T00:51:27;92546.00;;;11.66;75.22
7768;BME280;3928;42.626;23.382;2024-01-07T00:53:54;92573.09;;;11.91;75.74
7768;BME280;3928;42.626;23.382;2024-01-07T00:56:21;92565.84;;;11.82;76.86
7768;BME280;3928;42.626;23.382;2024-01-07T00:58:47;92573.09;;;11.91;76.60
7768;BME280;3928;42.626;23.382;2024-01-07T01:01:14;92567.97;;;11.91;77.19
7768;BME280;3928;42.626;23.382;2024-01-07T01:03:41;92567.03;;;11.75;77.82
7768;BME280;3928;42.626;23.382;2024-01-07T01:06:08;92556.47;;;11.81;77.74
7768;BME280;3928;42.626;23.382;2024-01-07T01:08:36;92565.69;;;12.02;76.93
7768;BME280;3928;42.626;23.382;2024-01-07T01:11:03;92540.91;;;12.01;76.76
7768;BME280;3928;42.626;23.382;2024-01-07T01:13:30;92552.88;;;12.18;75.76
7768;BME280;3928;42.626;23.382;2024-01-07T01:15:57;92545.63;;;12.26;75.25
7768;BME280;3928;42.626;23.382;2024-01-07T01:18:24;92545.72;;;12.40;74.94
7768;BME280;3928;42.626;23.382;2024-01-07T01:20:51;92539.44;;;12.46;74.66
7768;BME280;3928;42.626;23.382;2024-01-07T01:23:18;92530.56;;;12.51;74.11
7768;BME280;3928;42.626;23.382;2024-01-07T01:25:46;92524.13;;;12.60;73.59
7768;BME280;3928;42.626;23.382;2024-01-07T01:28:13;92516.22;;;12.63;73.68
7768;BME280;3928;42.626;23.382;2024-01-07T01:30:40;92503.19;;;12.66;73.44
7768;BME280;3928;42.626;23.382;2024-01-07T01:33:07;92505.75;;;12.66;73.10
7768;BME280;3928;42.626;23.382;2024-01-07T01:35:34;92496.94;;;12.54;75.43
7768;BME280;3928;42.626;23.382;2024-01-07T01:38:01;92496.47;;;12.64;76.01
7768;BME280;3928;42.626;23.382;2024-01-07T01:40:28;92490.50;;;12.63;75.84
7768;BME280;3928;42.626;23.382;2024-01-07T01:42:56;92484.53;;;12.63;75.75
7768;BME280;3928;42.626;23.382;2024-01-07T01:45:23;92492.50;;;12.58;75.23
7768;BME280;3928;42.626;23.382;2024-01-07T01:47:50;92476.72;;;12.64;74.70
7768;BME280;3928;42.626;23.382;2024-01-07T01:50:17;92429.75;;;12.45;74.59
7768;BME280;3928;42.626;23.382;2024-01-07T01:52:45;92454.47;;;12.63;74.72
7768;BME280;3928;42.626;23.382;2024-01-07T01:55:12;92449.00;;;12.69;73.98
7768;BME280;3928;42.626;23.382;2024-01-07T01:57:39;92449.00;;;12.69;74.25
7768;BME280;3928;42.626;23.382;2024-01-07T02:00:09;92441.28;;;12.69;75.01
7768;BME280;3928;42.626;23.382;2024-01-07T02:02:36;92447.81;;;12.75;75.20
7768;BME280;3928;42.626;23.382;2024-01-07T02:05:03;92450.84;;;12.67;75.79
7768;BME280;3928;42.626;23.382;2024-01-07T02:07:31;92441.53;;;12.65;76.84
7768;BME280;3928;42.626;23.382;2024-01-07T02:09:58;92442.03;;;12.55;75.75
7768;BME280;3928;42.626;23.382;2024-01-07T02:12:25;92463.75;;;12.34;75.49
7768;BME280;3928;42.626;23.382;2024-01-07T02:14:52;92438.88;;;12.35;76.13
7768;BME280;3928;42.626;23.382;2024-01-07T02:17:21;92441.00;;;12.42;75.40
7768;BME280;3928;42.626;23.382;2024-01-07T02:19:48;92434.91;;;12.45;75.56
7768;BME280;3928;42.626;23.382;2024-01-07T02:22:14;92409.81;;;12.48;76.82
7768;BME280;3928;42.626;23.382;2024-01-07T02:24:42;92402.44;;;12.58;75.92
7768;BME280;3928;42.626;23.382;2024-01-07T02:27:09;92387.75;;;12.60;75.50
7768;BME280;3928;42.626;23.382;2024-01-07T02:29:36;92368.31;;;12.70;74.70
7768;BME280;3928;42.626;23.382;2024-01-07T02:32:04;92354.94;;;12.79;74.87
7768;BME280;3928;42.626;23.382;2024-01-07T02:34:31;92359.63;;;12.87;74.31
7768;BME280;3928;42.626;23.382;2024-01-07T02:36:58;92366.06;;;12.64;76.06
7768;BME280;3928;42.626;23.382;2024-01-07T02:39:25;92282.75;;;12.21;77.07
7768;BME280;3928;42.626;23.382;2024-01-07T02:41:53;92370.44;;;12.78;77.12
7768;BME280;3928;42.626;23.382;2024-01-07T02:44:20;92365.38;;;12.76;77.37
7768;BME280;3928;42.626;23.382;2024-01-07T02:46:47;92362.81;;;12.76;77.60
7768;BME280;3928;42.626;23.382;2024-01-07T02:49:14;92364.81;;;12.71;78.01
7768;BME280;3928;42.626;23.382;2024-01-07T02:51:41;92369.81;;;12.43;79.92
7768;BME280;3928;42.626;23.382;2024-01-07T02:54:08;92360.53;;;12.24;81.29
7768;BME280;3928;42.626;23.382;2024-01-07T02:56:34;92359.72;;;12.08;82.09
7768;BME280;3928;42.626;23.382;2024-01-07T02:59:02;92386.47;;;12.04;82.91
7768;BME280;3928;42.626;23.382;2024-01-07T03:01:29;92381.78;;;12.28;82.18
7768;BME280;3928;42.626;23.382;2024-01-07T03:03:56;92365.84;;;12.37;81.13
7768;BME280;3928;42.626;23.382;2024-01-07T03:06:26;92377.59;;;12.73;80.31
7768;BME280;3928;42.626;23.382;2024-01-07T03:08:53;92375.69;;;12.76;78.92
7768;BME280;3928;42.626;23.382;2024-01-07T03:11:20;92378.09;;;12.64;79.49
7768;BME280;3928;42.626;23.382;2024-01-07T03:13:47;92353.38;;;12.61;78.63
7768;BME280;3928;42.626;23.382;2024-01-07T03:16:20;92374.84;;;12.76;79.20
7768;BME280;3928;42.626;23.382;2024-01-07T03:18:47;92382.91;;;12.85;78.52
7768;BME280;3928;42.626;23.382;2024-01-07T03:21:18;92382.44;;;12.79;79.05
7768;BME280;3928;42.626;23.382;2024-01-07T03:23:45;92386.63;;;12.96;78.68
7768;BME280;3928;42.626;23.382;2024-01-07T03:26:13;92389.31;;;13.08;78.17
7768;BME280;3928;42.626;23.382;2024-01-07T03:28:40;92388.81;;;13.17;78.54
7768;BME280;3928;42.626;23.382;2024-01-07T03:31:08;92383.41;;;13.22;78.39
7768;BME280;3928;42.626;23.382;2024-01-07T03:33:37;92384.91;;;13.26;78.32
7768;BME280;3928;42.626;23.382;2024-01-07T03:36:07;92375.81;;;13.35;78.52
7768;BME280;3928;42.626;23.382;2024-01-07T03:38:34;92374.63;;;13.40;78.33
7768;BME280;3928;42.626;23.382;2024-01-07T03:41:01;92373.81;;;13.40;78.63
7768;BME280;3928;42.626;23.382;2024-01-07T03:43:28;92366.81;;;13.42;79.28
7768;BME280;3928;42.626;23.382;2024-01-07T03:45:56;92369.81;;;13.34;79.88
7768;BME280;3928;42.626;23.382;2024-01-07T03:48:23;92360.41;;;13.19;80.32
7768;BME280;3928;42.626;23.382;2024-01-07T03:50:51;92352.25;;;13.11;80.16
7768;BME280;3928;42.626;23.382;2024-01-07T03:53:18;92358.91;;;13.15;79.83
7768;BME280;3928;42.626;23.382;2024-01-07T03:55:45;92356.25;;;13.16;79.29
7768;BME280;3928;42.626;23.382;2024-01-07T03:58:12;92347.47;;;13.05;79.53
7768;BME280;3928;42.626;23.382;2024-01-07T04:00:39;92342.63;;;13.14;79.22
7768;BME280;3928;42.626;23.382;2024-01-07T04:03:06;92331.75;;;13.09;79.27
7768;BME280;3928;42.626;23.382;2024-01-07T04:05:33;92338.47;;;13.12;79.75
7768;BME280;3928;42.626;23.382;2024-01-07T04:08:02;92343.03;;;12.93;80.39
7768;BME280;3928;42.626;23.382;2024-01-07T04:10:29;92334.75;;;13.02;79.83
7768;BME280;3928;42.626;23.382;2024-01-07T04:12:56;92340.81;;;13.01;80.09
7768;BME280;3928;42.626;23.382;2024-01-07T04:15:24;92343.38;;;12.86;80.27
7768;BME280;3928;42.626;23.382;2024-01-07T04:17:51;92348.31;;;12.89;80.47
7768;BME280;3928;42.626;23.382;2024-01-07T04:20:18;92339.03;;;12.87;80.24
7768;BME280;3928;42.626;23.382;2024-01-07T04:22:45;92360.25;;;12.76;80.55
7768;BME280;3928;42.626;23.382;2024-01-07T04:25:13;92350.25;;;12.56;81.28
7768;BME280;3928;42.626;23.382;2024-01-07T04:27:40;92342.69;;;12.53;81.38
7768;BME280;3928;42.626;23.382;2024-01-07T04:30:07;92337.44;;;12.54;81.61
7768;BME280;3928;42.626;23.382;2024-01-07T04:32:34;92315.81;;;12.27;81.95
7768;BME280;3928;42.626;23.382;2024-01-07T04:35:01;92312.94;;;12.33;81.42
7768;BME280;3928;42.626;23.382;2024-01-07T04:37:28;92321.31;;;12.37;81.34
7768;BME280;3928;42.626;23.382;2024-01-07T04:39:55;92305.63;;;12.25;81.10
7768;BME280;3928;42.626;23.382;2024-01-07T04:42:23;92318.56;;;12.24;81.43
7768;BME280;3928;42.626;23.382;2024-01-07T04:44:50;92321.47;;;12.18;81.21
7768;BME280;3928;42.626;23.382;2024-01-07T04:47:25;92318.06;;;12.02;81.64
7768;BME280;3928;42.626;23.382;2024-01-07T04:49:53;92289.91;;;12.00;81.68
7768;BME280;3928;42.626;23.382;2024-01-07T04:52:21;92328.44;;;12.00;81.99
7768;BME280;3928;42.626;23.382;2024-01-07T04:54:48;92345.03;;;11.61;83.94
7768;BME280;3928;42.626;23.382;2024-01-07T04:57:15;92340.38;;;11.68;83.48
7768;BME280;3928;42.626;23.382;2024-01-07T04:59:44;92326.75;;;11.83;83.05
7768;BME280;3928;42.626;23.382;2024-01-07T05:02:11;92311.44;;;11.82;82.87
7768;BME280;3928;42.626;23.382;2024-01-07T05:04:38;92331.19;;;11.31;85.32
7768;BME280;3928;42.626;23.382;2024-01-07T05:07:05;92320.03;;;11.48;85.21
7768;BME280;3928;42.626;23.382;2024-01-07T05:09:32;92312.69;;;11.57;84.60
7768;BME280;3928;42.626;23.382;2024-01-07T05:12:00;92316.66;;;11.80;83.93
7768;BME280;3928;42.626;23.382;2024-01-07T05:14:27;92312.94;;;11.86;83.66
7768;BME280;3928;42.626;23.382;2024-01-07T05:16:55;92308.72;;;12.00;83.53
7768;BME280;3928;42.626;23.382;2024-01-07T05:19:22;92318.41;;;12.11;82.87
7768;BME280;3928;42.626;23.382;2024-01-07T05:21:49;92304.47;;;12.15;82.41
7768;BME280;3928;42.626;23.382;2024-01-07T05:24:16;92323.91;;;12.21;81.83
7768;BME280;3928;42.626;23.382;2024-01-07T05:26:43;92318.31;;;12.28;81.32
7768;BME280;3928;42.626;23.382;2024-01-07T05:29:11;92319.88;;;12.31;81.12
7768;BME280;3928;42.626;23.382;2024-01-07T05:31:39;92336.00;;;12.35;80.99
7768;BME280;3928;42.626;23.382;2024-01-07T05:34:07;92322.53;;;12.29;80.99
7768;BME280;3928;42.626;23.382;2024-01-07T05:36:34;92312.28;;;12.14;81.73
7768;BME280;3928;42.626;23.382;2024-01-07T05:39:02;92306.88;;;12.18;81.44
7768;BME280;3928;42.626;23.382;2024-01-07T05:41:30;92309.44;;;12.34;81.06
7768;BME280;3928;42.626;23.382;2024-01-07T05:43:56;92313.03;;;12.32;81.07
7768;BME280;3928;42.626;23.382;2024-01-07T05:46:23;92320.38;;;12.38;81.01
7768;BME280;3928;42.626;23.382;2024-01-07T05:48:50;92334.72;;;12.42;80.58
7768;BME280;3928;42.626;23.382;2024-01-07T05:51:19;92333.50;;;12.33;81.00
7768;BME280;3928;42.626;23.382;2024-01-07T05:53:45;92340.63;;;12.12;81.22
7768;BME280;3928;42.626;23.382;2024-01-07T05:56:12;92356.06;;;11.46;85.14
7768;BME280;3928;42.626;23.382;2024-01-07T05:58:39;92345.59;;;11.51;85.46
7768;BME280;3928;42.626;23.382;2024-01-07T06:01:07;92341.47;;;11.64;85.07
7768;BME280;3928;42.626;23.382;2024-01-07T06:03:35;92329.19;;;11.69;85.15
7768;BME280;3928;42.626;23.382;2024-01-07T06:06:02;92320.34;;;11.75;84.96
7768;BME280;3928;42.626;23.382;2024-01-07T06:08:30;92328.31;;;11.37;86.58
7768;BME280;3928;42.626;23.382;2024-01-07T06:10:57;92304.31;;;11.21;87.09
7768;BME280;3928;42.626;23.382;2024-01-07T06:13:24;92321.78;;;11.47;86.86
7768;BME280;3928;42.626;23.382;2024-01-07T06:15:52;92310.19;;;11.40;86.91
7768;BME280;3928;42.626;23.382;2024-01-07T06:18:19;92322.41;;;11.35;87.02
7768;BME280;3928;42.626;23.382;2024-01-07T06:20:46;92320.63;;;11.37;86.90
7768;BME280;3928;42.626;23.382;2024-01-07T06:23:13;92316.44;;;11.34;87.38
7768;BME280;3928;42.626;23.382;2024-01-07T06:25:42;92309.28;;;11.41;86.55
7768;BME280;3928;42.626;23.382;2024-01-07T06:28:09;92306.53;;;11.44;87.11
7768;BME280;3928;42.626;23.382;2024-01-07T06:30:36;92272.78;;;11.19;89.49
7768;BME280;3928;42.626;23.382;2024-01-07T06:33:04;92323.31;;;11.34;88.65
7768;BME280;3928;42.626;23.382;2024-01-07T06:35:31;92320.66;;;11.02;89.36
7768;BME280;3928;42.626;23.382;2024-01-07T06:37:58;92328.94;;;11.25;89.22
7768;BME280;3928;42.626;23.382;2024-01-07T06:40:25;92334.34;;;11.36;88.91
7768;BME280;3928;42.626;23.382;2024-01-07T06:42:53;92356.81;;;10.80;91.24
7768;BME280;3928;42.626;23.382;2024-01-07T06:45:21;92347.00;;;11.06;90.77
7768;BME280;3928;42.626;23.382;2024-01-07T06:47:48;92345.94;;;11.27;89.86
7768;BME280;3928;42.626;23.382;2024-01-07T06:50:15;92354.47;;;10.93;90.68
7768;BME280;3928;42.626;23.382;2024-01-07T06:52:45;92349.28;;;10.95;91.83
7768;BME280;3928;42.626;23.382;2024-01-07T06:55:12;92321.28;;;10.90;91.89
7768;BME280;3928;42.626;23.382;2024-01-07T06:57:39;92351.44;;;10.85;93.11
7768;BME280;3928;42.626;23.382;2024-01-07T07:00:08;92359.41;;;10.44;95.66
7768;BME280;3928;42.626;23.382;2024-01-07T07:02:35;92325.50;;;10.74;93.93
7768;BME280;3928;42.626;23.382;2024-01-07T07:05:02;92303.47;;;10.70;93.45
7768;BME280;3928;42.626;23.382;2024-01-07T07:07:29;92372.88;;;10.12;98.25
7768;BME280;3928;42.626;23.382;2024-01-07T07:09:56;92314.91;;;10.45;96.83
7768;BME280;3928;42.626;23.382;2024-01-07T07:12:23;92343.91;;;10.82;95.97
7768;BME280;3928;42.626;23.382;2024-01-07T07:14:50;92354.78;;;10.87;94.20
7768;BME280;3928;42.626;23.382;2024-01-07T07:17:18;92316.78;;;11.11;93.58
7768;BME280;3928;42.626;23.382;2024-01-07T07:19:45;92328.22;;;11.05;93.29
7768;BME280;3928;42.626;23.382;2024-01-07T07:22:12;92321.88;;;10.78;95.50
7768;BME280;3928;42.626;23.382;2024-01-07T07:24:40;92330.72;;;11.40;98.17
7768;BME280;3928;42.626;23.382;2024-01-07T07:27:07;92329.06;;;11.72;93.83
7768;BME280;3928;42.626;23.382;2024-01-07T07:29:34;92336.59;;;11.75;91.24
7768;BME280;3928;42.626;23.382;2024-01-07T07:32:01;92333.94;;;11.77;90.74
7768;BME280;3928;42.626;23.382;2024-01-07T07:34:29;92277.41;;;11.61;90.18
7768;BME280;3928;42.626;23.382;2024-01-07T07:36:56;92344.91;;;11.80;89.82
7768;BME280;3928;42.626;23.382;2024-01-07T07:39:23;92334.69;;;11.96;89.32
7768;BME280;3928;42.626;23.382;2024-01-07T07:41:50;92314.28;;;12.09;88.60
7768;BME280;3928;42.626;23.382;2024-01-07T07:44:17;92286.97;;;11.75;88.67
7768;BME280;3928;42.626;23.382;2024-01-07T07:46:44;92316.91;;;12.07;87.45
7768;BME280;3928;42.626;23.382;2024-01-07T07:49:11;92316.09;;;12.22;86.68
7768;BME280;3928;42.626;23.382;2024-01-07T07:51:39;92313.41;;;12.40;85.72
7768;BME280;3928;42.626;23.382;2024-01-07T07:54:06;92313.72;;;12.49;85.30
7768;BME280;3928;42.626;23.382;2024-01-07T07:56:33;92318.59;;;12.54;85.25
7768;BME280;3928;42.626;23.382;2024-01-07T07:59:01;92212.28;;;12.09;84.45
7768;BME280;3928;42.626;23.382;2024-01-07T08:01:28;92310.03;;;12.69;83.50
7768;BME280;3928;42.626;23.382;2024-01-07T08:03:55;92320.91;;;12.74;82.94
7768;BME280;3928;42.626;23.382;2024-01-07T08:06:22;92318.69;;;12.68;83.00
7768;BME280;3928;42.626;23.382;2024-01-07T08:08:51;92319.78;;;12.78;83.08
7768;BME280;3928;42.626;23.382;2024-01-07T08:11:18;92316.97;;;12.83;82.63
7768;BME280;3928;42.626;23.382;2024-01-07T08:13:44;92322.78;;;12.86;82.27
7768;BME280;3928;42.626;23.382;2024-01-07T08:16:11;92322.44;;;12.93;82.39
7768;BME280;3928;42.626;23.382;2024-01-07T08:18:38;92323.91;;;12.97;80.90
7768;BME280;3928;42.626;23.382;2024-01-07T08:21:06;92313.81;;;13.08;81.07
7768;BME280;3928;42.626;23.382;2024-01-07T08:23:32;92307.75;;;13.09;81.07
7768;BME280;3928;42.626;23.382;2024-01-07T08:26:01;92313.44;;;13.14;81.06
7768;BME280;3928;42.626;23.382;2024-01-07T08:28:28;92317.38;;;13.21;81.43
7768;BME280;3928;42.626;23.382;2024-01-07T08:30:55;92324.06;;;13.24;80.90
7768;BME280;3928;42.626;23.382;2024-01-07T08:33:22;92311.31;;;13.36;80.76
7768;BME280;3928;42.626;23.382;2024-01-07T08:35:49;92291.44;;;13.24;83.62
7768;BME280;3928;42.626;23.382;2024-01-07T08:38:16;92310.66;;;13.61;79.63
7768;BME280;3928;42.626;23.382;2024-01-07T08:40:43;92326.97;;;13.76;79.39
7768;BME280;3928;42.626;23.382;2024-01-07T08:43:11;92316.09;;;13.99;81.43
7768;BME280;3928;42.626;23.382;2024-01-07T08:45:38;92304.34;;;14.22;82.89
7768;BME280;3928;42.626;23.382;2024-01-07T08:48:06;92309.75;;;14.46;81.79
7768;BME280;3928;42.626;23.382;2024-01-07T08:50:33;92307.94;;;14.61;77.43
7768;BME280;3928;42.626;23.382;2024-01-07T08:53:00;92244.88;;;14.38;79.78
7768;BME280;3928;42.626;23.382;2024-01-07T08:55:27;92293.31;;;14.74;75.90
7768;BME280;3928;42.626;23.382;2024-01-07T08:57:54;92307.72;;;14.91;74.42
7768;BME280;3928;42.626;23.382;2024-01-07T09:00:22;92315.44;;;14.91;74.29
7768;BME280;3928;42.626;23.382;2024-01-07T09:02:52;92310.47;;;14.48;73.38
7768;BME280;3928;42.626;23.382;2024-01-07T09:05:19;92305.22;;;14.50;74.96
7768;BME280;3928;42.626;23.382;2024-01-07T09:07:46;92282.84;;;14.36;75.87
7768;BME280;3928;42.626;23.382;2024-01-07T09:10:13;92300.88;;;14.50;76.11
7768;BME280;3928;42.626;23.382;2024-01-07T09:12:40;92299.97;;;14.51;76.53
7768;BME280;3928;42.626;23.382;2024-01-07T09:15:07;92292.16;;;14.66;76.62
7768;BME280;3928;42.626;23.382;2024-01-07T09:17:37;92308.97;;;14.58;77.17
7768;BME280;3928;42.626;23.382;2024-01-07T09:20:05;92316.06;;;14.14;78.86
7768;BME280;3928;42.626;23.382;2024-01-07T09:22:33;92324.16;;;14.08;79.43
7768;BME280;3928;42.626;23.382;2024-01-07T09:25:01;92327.41;;;14.11;79.52
7768;BME280;3928;42.626;23.382;2024-01-07T09:27:29;92320.50;;;14.12;79.61
7768;BME280;3928;42.626;23.382;2024-01-07T09:29:56;92298.94;;;14.13;80.45
7768;BME280;3928;42.626;23.382;2024-01-07T09:32:23;92291.56;;;14.07;80.41
7768;BME280;3928;42.626;23.382;2024-01-07T09:34:51;92284.81;;;14.18;81.23
7768;BME280;3928;42.626;23.382;2024-01-07T09:37:19;92291.69;;;14.32;81.31
7768;BME280;3928;42.626;23.382;2024-01-07T09:39:46;92291.16;;;14.27;81.75
7768;BME280;3928;42.626;23.382;2024-01-07T09:42:14;92292.63;;;14.45;81.23
7768;BME280;3928;42.626;23.382;2024-01-07T09:44:41;92299.22;;;14.49;80.22
7768;BME280;3928;42.626;23.382;2024-01-07T09:47:10;92304.34;;;14.63;79.77
7768;BME280;3928;42.626;23.382;2024-01-07T09:49:38;92298.03;;;14.68;78.65
7768;BME280;3928;42.626;23.382;2024-01-07T09:52:08;92306.34;;;14.73;78.20
7768;BME280;3928;42.626;23.382;2024-01-07T09:54:36;92299.31;;;14.75;77.45
7768;BME280;3928;42.626;23.382;2024-01-07T09:57:05;92301.78;;;14.76;77.28
7768;BME280;3928;42.626;23.382;2024-01-07T09:59:33;92310.16;;;14.80;75.30
7768;BME280;3928;42.626;23.382;2024-01-07T10:02:02;92292.53;;;14.86;73.80
7768;BME280;3928;42.626;23.382;2024-01-07T10:04:29;92302.66;;;14.89;71.17
7768;BME280;3928;42.626;23.382;2024-01-07T10:06:57;92302.38;;;14.94;70.76
7768;BME280;3928;42.626;23.382;2024-01-07T10:09:29;92291.63;;;15.00;70.26
7768;BME280;3928;42.626;23.382;2024-01-07T10:11:56;92290.69;;;15.01;69.94
7768;BME280;3928;42.626;23.382;2024-01-07T10:14:23;92294.22;;;15.13;69.05
7768;BME280;3928;42.626;23.382;2024-01-07T10:16:51;92255.66;;;14.97;68.85
7768;BME280;3928;42.626;23.382;2024-01-07T10:19:20;92261.47;;;15.13;68.62
7768;BME280;3928;42.626;23.382;2024-01-07T10:21:58;92259.31;;;15.07;69.02
7768;BME280;3928;42.626;23.382;2024-01-07T10:24:35;92262.59;;;14.97;68.23
7768;BME280;3928;42.626;23.382;2024-01-07T10:27:03;92264.75;;;15.03;69.22
7768;BME280;3928;42.626;23.382;2024-01-07T10:29:31;92257.75;;;14.92;68.51
7768;BME280;3928;42.626;23.382;2024-01-07T10:31:58;92262.47;;;14.98;68.52
7768;BME280;3928;42.626;23.382;2024-01-07T10:34:29;92266.84;;;15.10;68.46
7768;BME280;3928;42.626;23.382;2024-01-07T10:36:58;92241.72;;;15.12;68.39
7768;BME280;3928;42.626;23.382;2024-01-07T10:39:27;92232.44;;;15.10;68.07
7768;BME280;3928;42.626;23.382;2024-01-07T10:41:55;92234.50;;;14.92;68.62
7768;BME280;3928;42.626;23.382;2024-01-07T10:44:25;92238.31;;;14.99;69.17
7768;BME280;3928;42.626;23.382;2024-01-07T10:46:53;92232.53;;;14.96;68.84
7768;BME280;3928;42.626;23.382;2024-01-07T10:49:22;92225.28;;;14.88;69.00
7768;BME280;3928;42.626;23.382;2024-01-07T10:51:56;92248.84;;;14.96;68.49
7768;BME280;3928;42.626;23.382;2024-01-07T10:54:30;92244.19;;;15.01;68.94
7768;BME280;3928;42.626;23.382;2024-01-07T10:57:00;92236.34;;;14.90;68.93
7768;BME280;3928;42.626;23.382;2024-01-07T10:59:32;92240.69;;;15.02;68.99
7768;BME280;3928;42.626;23.382;2024-01-07T11:02:00;92244.63;;;15.08;68.96
7768;BME280;3928;42.626;23.382;2024-01-07T11:04:34;92237.09;;;14.92;68.89
7768;BME280;3928;42.626;23.382;2024-01-07T11:07:23;92234.06;;;14.85;68.89
7768;BME280;3928;42.626;23.382;2024-01-07T11:10:05;92180.31;;;14.52;69.30
7768;BME280;3928;42.626;23.382;2024-01-07T11:12:34;92237.13;;;14.78;69.79
7768;BME280;3928;42.626;23.382;2024-01-07T11:15:02;92236.75;;;14.84;70.05
7768;BME280;3928;42.626;23.382;2024-01-07T11:17:41;92230.34;;;14.89;69.54
7768;BME280;3928;42.626;23.382;2024-01-07T11:20:19;92231.28;;;14.88;69.02
7768;BME280;3928;42.626;23.382;2024-01-07T11:22:47;92240.50;;;15.05;69.66
7768;BME280;3928;42.626;23.382;2024-01-07T11:25:31;92232.94;;;15.02;68.17
7768;BME280;3928;42.626;23.382;2024-01-07T11:28:01;92241.72;;;15.12;67.64
7768;BME280;3928;42.626;23.382;2024-01-07T11:30:28;92223.97;;;15.20;67.09
7768;BME280;3928;42.626;23.382;2024-01-07T11:32:58;92233.56;;;15.31;66.83
7768;BME280;3928;42.626;23.382;2024-01-07T11:35:56;92226.44;;;15.35;65.93
7768;BME280;3928;42.626;23.382;2024-01-07T11:38:23;92237.69;;;15.34;65.18
7768;BME280;3928;42.626;23.382;2024-01-07T11:40:52;92243.59;;;15.36;65.58
7768;BME280;3928;42.626;23.382;2024-01-07T11:43:19;92241.09;;;15.34;64.53
7768;BME280;3928;42.626;23.382;2024-01-07T11:45:46;92235.72;;;15.25;65.34
7768;BME280;3928;42.626;23.382;2024-01-07T11:48:16;92239.56;;;15.32;65.35
7768;BME280;3928;42.626;23.382;2024-01-07T11:50:42;92244.31;;;15.38;65.83
7768;BME280;3928;42.626;23.382;2024-01-07T11:53:11;92243.06;;;15.43;65.41
7768;BME280;3928;42.626;23.382;2024-01-07T11:55:38;92225.94;;;15.30;64.30
7768;BME280;3928;42.626;23.382;2024-01-07T11:58:07;92244.41;;;15.49;64.37
7768;BME280;3928;42.626;23.382;2024-01-07T12:00:34;92237.41;;;15.51;64.36
7768;BME280;3928;42.626;23.382;2024-01-07T12:03:02;92238.81;;;15.55;64.57
7768;BME280;3928;42.626;23.382;2024-01-07T12:05:30;92246.09;;;15.63;64.48
7768;BME280;3928;42.626;23.382;2024-01-07T12:07:57;92243.19;;;15.67;64.09
7768;BME280;3928;42.626;23.382;2024-01-07T12:10:24;92234.38;;;15.57;63.71
7768;BME280;3928;42.626;23.382;2024-01-07T12:12:52;92234.59;;;15.67;63.48
7768;BME280;3928;42.626;23.382;2024-01-07T12:15:21;92232.63;;;15.70;63.51
7768;BME280;3928;42.626;23.382;2024-01-07T12:17:55;92228.50;;;15.68;63.13
7768;BME280;3928;42.626;23.382;2024-01-07T12:20:24;92239.44;;;15.59;63.00
7768;BME280;3928;42.626;23.382;2024-01-07T12:22:51;92236.53;;;15.50;63.36
7768;BME280;3928;42.626;23.382;2024-01-07T12:25:21;92237.81;;;15.45;63.09
7768;BME280;3928;42.626;23.382;2024-01-07T12:27:49;92233.78;;;15.41;63.23
7768;BME280;3928;42.626;23.382;2024-01-07T12:30:20;92242.97;;;15.45;63.38
7768;BME280;3928;42.626;23.382;2024-01-07T12:32:47;92242.97;;;15.45;63.36
7768;BME280;3928;42.626;23.382;2024-01-07T12:35:14;92242.97;;;15.45;64.42
7768;BME280;3928;42.626;23.382;2024-01-07T12:37:42;92246.78;;;15.52;64.43
7768;BME280;3928;42.626;23.382;2024-01-07T12:40:09;92244.81;;;15.56;64.07
7768;BME280;3928;42.626;23.382;2024-01-07T12:42:37;92247.28;;;15.57;64.12
7768;BME280;3928;42.626;23.382;2024-01-07T12:45:06;92248.75;;;15.61;64.06
7768;BME280;3928;42.626;23.382;2024-01-07T12:47:36;92244.72;;;15.32;64.25
7768;BME280;3928;42.626;23.382;2024-01-07T12:50:03;92242.16;;;15.19;64.67
7768;BME280;3928;42.626;23.382;2024-01-07T12:52:30;92231.91;;;14.92;65.17
7768;BME280;3928;42.626;23.382;2024-01-07T12:54:57;92245.66;;;15.05;65.22
7768;BME280;3928;42.626;23.382;2024-01-07T12:57:24;92237.56;;;14.84;65.75
7768;BME280;3928;42.626;23.382;2024-01-07T12:59:51;92251.38;;;14.58;66.89
7768;BME280;3928;42.626;23.382;2024-01-07T13:02:18;92249.19;;;14.65;67.72
7768;BME280;3928;42.626;23.382;2024-01-07T13:04:46;92256.56;;;14.71;67.34
7768;BME280;3928;42.626;23.382;2024-01-07T13:07:13;92258.41;;;14.69;68.10
7768;BME280;3928;42.626;23.382;2024-01-07T13:09:40;92254.47;;;14.63;67.59
7768;BME280;3928;42.626;23.382;2024-01-07T13:12:07;92260.19;;;14.68;66.80
7768;BME280;3928;42.626;23.382;2024-01-07T13:14:34;92260.06;;;14.70;67.07